createdAt,value
2018-04-24T00:01:44.638Z,78.50
2018-04-24T00:04:12.926Z,79.00
2018-04-24T00:06:40.432Z,79.00
2018-04-24T00:09:07.985Z,79.40
2018-04-24T00:11:35.540Z,78.90
2018-04-24T00:14:03.828Z,79.10
2018-04-24T00:16:31.405Z,79.10
2018-04-24T00:18:58.914Z,78.70
2018-04-24T00:21:26.744Z,78.90
2018-04-24T00:23:54.289Z,79.10
2018-04-24T00:26:21.808Z,79.00
2018-04-24T00:28:49.380Z,79.20
2018-04-24T00:31:16.914Z,79.20
2018-04-24T00:33:45.189Z,79.50
2018-04-24T00:36:13.464Z,79.20
2018-04-24T00:38:41.004Z,79.20
2018-04-24T00:41:09.281Z,78.90
2018-04-24T00:43:36.832Z,78.80
2018-04-24T00:46:04.475Z,78.90
2018-04-24T00:48:31.989Z,79.00
2018-04-24T00:50:59.516Z,79.10
2018-04-24T00:53:39.002Z,78.30
2018-04-24T00:56:06.513Z,78.70
2018-04-24T00:58:34.017Z,78.60
2018-04-24T01:01:01.574Z,78.40
2018-04-24T01:03:29.087Z,78.20
2018-04-24T01:05:56.599Z,78.70
2018-04-24T01:08:24.158Z,78.50
2018-04-24T01:10:52.483Z,78.80
2018-04-24T01:13:20.756Z,78.50
2018-04-24T01:15:49.060Z,77.90
2018-04-24T01:18:16.564Z,77.90
2018-04-24T01:20:44.083Z,77.90
2018-04-24T01:23:12.566Z,78.20
2018-04-24T01:25:40.106Z,78.70
2018-04-24T01:28:07.621Z,78.60
2018-04-24T01:30:35.178Z,78.60
2018-04-24T01:33:02.697Z,78.80
2018-04-24T01:35:30.223Z,78.90
2018-04-24T01:37:57.749Z,79.00
2018-04-24T01:40:26.028Z,78.60
2018-04-24T01:42:54.301Z,77.70
2018-04-24T01:45:22.611Z,77.50
2018-04-24T01:47:50.117Z,77.50
2018-04-24T01:50:17.626Z,77.90
2018-04-24T01:52:45.156Z,78.20
2018-04-24T01:55:12.672Z,78.60
2018-04-24T01:57:40.212Z,78.30
2018-04-24T02:00:08.520Z,77.90
2018-04-24T02:02:36.078Z,77.80
2018-04-24T02:05:03.593Z,77.90
2018-04-24T02:07:31.128Z,78.10
2018-04-24T02:09:58.656Z,77.30
2018-04-24T02:12:26.169Z,77.90
2018-04-24T02:14:53.800Z,77.00
2018-04-24T02:17:21.310Z,77.20
2018-04-24T02:19:48.830Z,76.60
2018-04-24T02:22:16.370Z,76.80
2018-04-24T02:24:45.086Z,77.00
2018-04-24T02:27:12.617Z,76.90
2018-04-24T02:29:40.922Z,76.90
2018-04-24T02:32:08.425Z,76.80
2018-04-24T02:34:36.706Z,76.70
2018-04-24T02:37:04.249Z,76.60
2018-04-24T02:39:31.814Z,76.50
2018-04-24T02:41:59.327Z,76.70
2018-04-24T02:44:27.653Z,76.50
2018-04-24T02:46:55.165Z,76.50
2018-04-24T02:49:22.770Z,76.80
2018-04-24T02:51:50.298Z,76.50
2018-04-24T02:54:17.811Z,76.20
2018-04-24T02:56:45.318Z,76.30
2018-04-24T02:59:12.857Z,76.70
2018-04-24T03:01:40.377Z,76.90
2018-04-24T03:04:08.656Z,76.60
2018-04-24T03:06:36.974Z,77.10
2018-04-24T03:09:07.293Z,77.10
2018-04-24T03:11:34.811Z,77.40
2018-04-24T03:14:03.105Z,78.60
2018-04-24T03:16:31.378Z,78.10
2018-04-24T03:18:59.673Z,79.30
2018-04-24T03:21:27.992Z,78.40
2018-04-24T03:23:55.511Z,78.30
2018-04-24T03:26:23.988Z,78.20
2018-04-24T03:28:52.306Z,78.80
2018-04-24T03:31:19.813Z,78.70
2018-04-24T03:33:47.330Z,78.50
2018-04-24T03:36:14.881Z,78.60
2018-04-24T03:38:43.157Z,79.60
2018-04-24T03:41:11.441Z,79.60
2018-04-24T03:43:39.741Z,80.80
2018-04-24T03:46:07.272Z,80.10
2018-04-24T03:48:35.552Z,80.60
2018-04-24T03:51:03.883Z,80.10
2018-04-24T03:53:31.446Z,80.00
2018-04-24T03:55:58.961Z,80.50
2018-04-24T03:58:26.505Z,80.50
2018-04-24T04:00:54.018Z,80.40
2018-04-24T04:03:21.577Z,80.30
2018-04-24T04:05:49.112Z,80.30
2018-04-24T04:08:18.129Z,79.60
2018-04-24T04:10:46.407Z,79.90
2018-04-24T04:13:14.821Z,80.40
2018-04-24T04:15:42.341Z,80.20
2018-04-24T04:18:21.749Z,79.90
2018-04-24T04:21:11.877Z,80.70
2018-04-24T04:23:52.092Z,80.40
2018-04-24T04:26:19.625Z,80.30
2018-04-24T04:28:47.248Z,80.30
2018-04-24T04:31:15.572Z,80.40
2018-04-24T04:33:43.092Z,80.30
2018-04-24T04:36:11.414Z,80.60
2018-04-24T04:38:39.095Z,80.40
2018-04-24T04:41:06.645Z,79.90
2018-04-24T04:43:34.153Z,79.60
2018-04-24T04:46:01.768Z,79.50
2018-04-24T04:48:29.292Z,79.90
2018-04-24T04:50:56.809Z,80.10
2018-04-24T04:53:24.389Z,79.90
2018-04-24T04:55:51.929Z,80.00
2018-04-24T04:58:19.457Z,79.80
2018-04-24T05:00:47.740Z,80.10
2018-04-24T05:03:16.010Z,78.70
2018-04-24T05:05:43.529Z,78.60
2018-04-24T05:08:11.065Z,78.20
2018-04-24T05:10:39.342Z,77.60
2018-04-24T05:13:06.864Z,77.60
2018-04-24T05:15:35.156Z,78.80
2018-04-24T05:18:02.669Z,78.80
2018-04-24T05:20:30.193Z,78.40
2018-04-24T05:22:57.801Z,77.30
2018-04-24T05:25:25.309Z,78.10
2018-04-24T05:27:52.826Z,77.50
2018-04-24T05:30:20.722Z,77.60
2018-04-24T05:32:48.224Z,77.20
2018-04-24T05:35:15.736Z,76.80
2018-04-24T05:37:43.271Z,76.70
2018-04-24T05:40:11.536Z,75.60
2018-04-24T05:42:39.137Z,75.60
2018-04-24T05:45:06.599Z,74.70
2018-04-24T05:47:34.169Z,75.20
2018-04-24T05:50:01.674Z,74.10
2018-04-24T05:52:29.984Z,73.50
2018-04-24T05:54:58.254Z,72.50
2018-04-24T05:57:25.770Z,72.50
2018-04-24T05:59:53.314Z,72.10
2018-04-24T06:02:20.828Z,71.00
2018-04-24T06:04:48.349Z,71.20
2018-04-24T06:07:15.877Z,70.00
2018-04-24T06:09:44.154Z,67.50
2018-04-24T06:12:11.678Z,67.40
2018-04-24T06:14:39.205Z,69.10
2018-04-24T06:17:07.489Z,66.20
2018-04-24T06:19:35.137Z,66.10
2018-04-24T06:22:03.465Z,65.20
2018-04-24T06:24:31.010Z,65.20
2018-04-24T06:26:58.531Z,64.00
2018-04-24T06:29:26.062Z,62.80
2018-04-24T06:31:53.646Z,60.50
2018-04-24T06:34:21.191Z,60.70
2018-04-24T06:36:48.725Z,60.20
2018-04-24T06:39:16.229Z,59.60
2018-04-24T06:41:43.735Z,58.00
2018-04-24T06:44:12.040Z,58.80
2018-04-24T06:46:39.552Z,58.80
2018-04-24T06:49:07.053Z,58.40
2018-04-24T06:51:35.362Z,56.70
2018-04-24T06:54:02.897Z,56.70
2018-04-24T06:56:31.172Z,55.80
2018-04-24T06:58:59.471Z,55.90
2018-04-24T07:01:26.984Z,55.80
2018-04-24T07:03:54.481Z,55.80
2018-04-24T07:06:22.942Z,54.20
2018-04-24T07:08:50.438Z,54.10
2018-04-24T07:11:18.729Z,53.30
2018-04-24T07:13:46.288Z,53.30
2018-04-24T07:16:13.796Z,53.20
2018-04-24T07:18:41.301Z,52.20
2018-04-24T07:21:09.607Z,50.40
2018-04-24T07:23:37.108Z,50.30
2018-04-24T07:26:04.641Z,50.80
2018-04-24T07:28:32.160Z,49.70
2018-04-24T07:31:00.178Z,49.50
2018-04-24T07:33:27.724Z,49.40
2018-04-24T07:35:56.021Z,49.10
2018-04-24T07:38:23.527Z,49.10
2018-04-24T07:40:51.038Z,48.70
2018-04-24T07:43:18.564Z,48.30
2018-04-24T07:45:46.082Z,48.70
2018-04-24T07:48:13.589Z,46.30
2018-04-24T07:50:41.137Z,46.70
2018-04-24T07:53:08.677Z,45.80
2018-04-24T07:55:36.193Z,43.20
2018-04-24T07:58:03.724Z,41.40
2018-04-24T08:00:31.256Z,42.90
2018-04-24T08:02:58.765Z,44.90
2018-04-24T08:05:26.293Z,44.50
2018-04-24T08:07:53.797Z,44.70
2018-04-24T08:10:21.310Z,45.10
2018-04-24T08:12:48.837Z,47.60
2018-04-24T08:15:16.357Z,44.40
2018-04-24T08:17:43.867Z,42.50
2018-04-24T08:20:12.184Z,40.30
2018-04-24T08:22:40.608Z,40.30
2018-04-24T08:25:08.124Z,41.60
2018-04-24T08:27:35.673Z,40.20
2018-04-24T08:30:03.185Z,42.00
2018-04-24T08:32:30.697Z,42.20
2018-04-24T08:34:59.925Z,43.60
2018-04-24T08:37:27.462Z,43.60
2018-04-24T08:39:55.750Z,45.50
2018-04-24T08:42:24.050Z,46.40
2018-04-24T08:44:51.565Z,46.40
2018-04-24T08:47:19.069Z,47.30
2018-04-24T08:49:47.353Z,48.00
2018-04-24T08:52:15.625Z,48.30
2018-04-24T08:54:43.901Z,48.50
2018-04-24T08:57:12.193Z,45.00
2018-04-24T08:59:39.716Z,45.00
2018-04-24T09:02:07.294Z,41.60
2018-04-24T09:04:35.377Z,40.90
2018-04-24T09:07:02.876Z,40.30
2018-04-24T09:09:30.419Z,42.30
2018-04-24T09:11:58.708Z,38.50
2018-04-24T09:14:26.981Z,38.40
2018-04-24T09:16:55.307Z,40.10
2018-04-24T09:19:22.817Z,40.00
2018-04-24T09:21:50.341Z,42.10
2018-04-24T09:24:17.845Z,42.40
2018-04-24T09:26:46.139Z,44.40
2018-04-24T09:29:14.414Z,44.90
2018-04-24T09:31:43.615Z,45.10
2018-04-24T09:34:11.909Z,45.60
2018-04-24T09:36:40.367Z,45.60
2018-04-24T09:39:08.645Z,40.80
2018-04-24T09:41:36.177Z,40.80
2018-04-24T09:44:03.677Z,41.40
2018-04-24T09:46:31.957Z,44.00
2018-04-24T09:48:59.612Z,43.90
2018-04-24T09:51:27.110Z,44.40
2018-04-24T09:53:54.561Z,44.20
2018-04-24T09:56:22.853Z,39.00
2018-04-24T09:58:51.262Z,35.70
2018-04-24T10:01:18.769Z,35.60
2018-04-24T10:03:46.302Z,34.70
2018-04-24T10:06:13.817Z,34.00
2018-04-24T10:11:16.010Z,31.30
2018-04-24T10:13:44.291Z,30.60
2018-04-24T10:16:12.573Z,29.10
2018-04-24T10:18:40.869Z,29.90
2018-04-24T10:21:08.382Z,29.90
2018-04-24T10:23:35.908Z,28.20
2018-04-24T10:26:04.215Z,28.00
2018-04-24T10:28:31.713Z,27.90
2018-04-24T10:30:59.989Z,28.50
2018-04-24T10:33:27.545Z,28.60
2018-04-24T10:35:55.066Z,28.40
2018-04-24T10:38:22.727Z,28.20
2018-04-24T10:40:50.261Z,28.90
2018-04-24T10:43:17.757Z,29.80
2018-04-24T10:45:45.273Z,29.00
2018-04-24T10:48:12.810Z,28.70
2018-04-24T10:50:40.313Z,27.20
2018-04-24T10:53:07.833Z,27.50
2018-04-24T10:55:35.385Z,25.00
2018-04-24T10:58:02.899Z,26.80
2018-04-24T11:00:32.008Z,25.90
2018-04-24T11:02:59.476Z,25.90
2018-04-24T11:05:27.746Z,26.90
2018-04-24T11:07:56.032Z,28.00
2018-04-24T11:10:24.321Z,29.40
2018-04-24T11:12:52.594Z,28.40
2018-04-24T11:15:20.867Z,28.90
2018-04-24T11:17:49.161Z,27.90
2018-04-24T11:20:17.440Z,27.40
2018-04-24T11:22:45.734Z,28.00
2018-04-24T11:25:13.281Z,28.00
2018-04-24T11:27:41.589Z,27.40
2018-04-24T11:30:09.093Z,27.30
2018-04-24T11:32:36.617Z,28.30
2018-04-24T11:35:04.142Z,27.80
2018-04-24T11:37:31.657Z,27.40
2018-04-24T11:39:59.396Z,28.60
2018-04-24T11:42:27.672Z,29.30
2018-04-24T11:44:55.959Z,29.80
2018-04-24T11:47:24.260Z,30.50
2018-04-24T11:49:51.765Z,29.90
2018-04-24T11:52:19.274Z,29.40
2018-04-24T11:54:47.573Z,30.20
2018-04-24T11:57:15.954Z,30.10
2018-04-24T11:59:43.494Z,33.00
2018-04-24T12:02:11.826Z,35.20
2018-04-24T12:04:39.346Z,35.20
2018-04-24T12:07:07.621Z,36.60
2018-04-24T12:09:35.927Z,34.90
2018-04-24T12:12:03.445Z,34.80
2018-04-24T12:14:30.971Z,33.50
2018-04-24T12:16:58.528Z,35.70
2018-04-24T12:19:26.092Z,36.80
2018-04-24T12:21:53.614Z,36.70
2018-04-24T12:24:21.165Z,37.80
2018-04-24T12:26:48.682Z,38.00
2018-04-24T12:29:16.189Z,38.50
2018-04-24T12:31:43.724Z,37.20
2018-04-24T12:34:11.254Z,37.70
2018-04-24T12:36:38.775Z,37.60
2018-04-24T12:39:06.301Z,39.10
2018-04-24T12:41:33.864Z,38.50
2018-04-24T12:44:01.375Z,37.80
2018-04-24T12:46:28.909Z,37.50
2018-04-24T12:48:56.433Z,36.90
2018-04-24T12:51:24.733Z,36.60
2018-04-24T12:53:52.278Z,36.50
2018-04-24T12:56:20.545Z,37.10
2018-04-24T12:58:48.060Z,37.00
2018-04-24T13:01:15.585Z,38.10
2018-04-24T13:03:43.893Z,38.00
2018-04-24T13:06:11.395Z,38.00
2018-04-24T13:08:38.917Z,38.90
2018-04-24T13:11:06.433Z,38.40
2018-04-24T13:13:33.941Z,38.50
2018-04-24T13:16:01.515Z,37.60
2018-04-24T13:18:29.076Z,37.30
2018-04-24T13:20:57.501Z,35.00
2018-04-24T13:23:25.034Z,35.00
2018-04-24T13:25:52.694Z,34.10
2018-04-24T13:28:20.141Z,35.10
2018-04-24T13:30:48.445Z,35.70
2018-04-24T13:33:16.722Z,37.20
2018-04-24T13:35:44.247Z,36.60
2018-04-24T13:38:11.777Z,37.30
2018-04-24T13:40:39.297Z,36.90
2018-04-24T13:43:07.785Z,38.00
2018-04-24T13:45:35.333Z,37.90
2018-04-24T13:48:03.622Z,37.00
2018-04-24T13:50:31.900Z,37.60
2018-04-24T13:53:00.333Z,37.60
2018-04-24T13:55:27.962Z,37.50
2018-04-24T13:57:56.130Z,37.70
2018-04-24T14:00:24.434Z,37.30
2018-04-24T14:02:51.944Z,37.30
2018-04-24T14:05:19.448Z,37.60
2018-04-24T14:07:47.842Z,37.20
2018-04-24T14:10:15.353Z,37.20
2018-04-24T14:12:43.055Z,37.00
2018-04-24T14:15:11.345Z,38.80
2018-04-24T14:17:39.640Z,38.50
2018-04-24T14:20:07.140Z,38.40
2018-04-24T14:22:34.688Z,37.80
2018-04-24T14:25:02.194Z,38.70
2018-04-24T14:27:29.702Z,38.40
2018-04-24T14:29:57.237Z,39.10
2018-04-24T14:32:25.524Z,37.00
2018-04-24T14:34:53.809Z,38.10
2018-04-24T14:37:21.385Z,38.10
2018-04-24T14:39:48.904Z,37.80
2018-04-24T14:42:22.250Z,38.40
2018-04-24T14:44:50.686Z,37.80
2018-04-24T14:47:18.300Z,37.30
2018-04-24T14:49:45.878Z,37.80
2018-04-24T14:52:14.247Z,37.80
2018-04-24T14:54:41.814Z,37.70
2018-04-24T14:57:09.348Z,37.70
2018-04-24T14:59:37.621Z,38.30
2018-04-24T15:02:05.133Z,38.10
2018-04-24T15:04:32.657Z,38.50
2018-04-24T15:07:00.953Z,39.80
2018-04-24T15:09:28.472Z,39.70
2018-04-24T15:11:56.013Z,38.90
2018-04-24T15:14:23.531Z,39.40
2018-04-24T15:16:51.817Z,40.20
2018-04-24T15:19:20.115Z,39.30
2018-04-24T15:21:47.629Z,39.20
2018-04-24T15:24:15.913Z,38.70
2018-04-24T15:26:43.449Z,38.70
2018-04-24T15:29:10.960Z,38.30
2018-04-24T15:31:38.562Z,38.00
2018-04-24T15:34:06.097Z,38.90
2018-04-24T15:36:34.378Z,39.30
2018-04-24T15:39:02.653Z,40.30
2018-04-24T15:41:30.193Z,40.30
2018-04-24T15:43:57.700Z,40.60
2018-04-24T15:46:25.425Z,40.60
2018-04-24T15:48:52.953Z,41.00
2018-04-24T15:51:20.469Z,40.30
2018-04-24T15:53:47.968Z,39.90
2018-04-24T15:56:16.304Z,39.70
2018-04-24T15:58:43.832Z,39.60
2018-04-24T16:01:11.351Z,40.60
2018-04-24T16:03:40.641Z,39.50
2018-04-24T16:06:08.921Z,40.70
2018-04-24T16:08:36.427Z,40.60
2018-04-24T16:11:03.993Z,41.80
2018-04-24T16:13:31.497Z,42.60
2018-04-24T16:15:59.033Z,43.00
2018-04-24T16:18:26.556Z,42.20
2018-04-24T16:20:54.867Z,42.10
2018-04-24T16:23:22.378Z,42.10
2018-04-24T16:25:49.910Z,43.20
2018-04-24T16:28:17.429Z,42.00
2018-04-24T16:30:45.692Z,43.20
2018-04-24T16:33:13.267Z,43.10
2018-04-24T16:35:41.548Z,42.90
2018-04-24T16:38:09.835Z,42.40
2018-04-24T16:40:38.129Z,42.40
2018-04-24T16:43:06.402Z,42.30
2018-04-24T16:45:34.680Z,41.70
2018-04-24T16:48:03.073Z,41.50
2018-04-24T16:50:31.360Z,41.10
2018-04-24T16:52:59.643Z,42.20
2018-04-24T16:55:27.174Z,42.10
2018-04-24T16:57:54.682Z,42.10
2018-04-24T17:00:22.224Z,42.30
2018-04-24T17:02:50.527Z,42.60
2018-04-24T17:05:18.049Z,42.50
2018-04-24T17:07:47.077Z,43.90
2018-04-24T17:10:14.609Z,43.90
2018-04-24T17:12:42.162Z,43.80
2018-04-24T17:15:09.687Z,44.20
2018-04-24T17:17:37.221Z,44.60
2018-04-24T17:20:05.529Z,45.00
2018-04-24T17:22:33.070Z,45.00
2018-04-24T17:25:01.357Z,44.90
2018-04-24T17:27:29.625Z,45.20
2018-04-24T17:29:57.909Z,44.80
2018-04-24T17:32:26.197Z,44.90
2018-04-24T17:34:54.489Z,45.60
2018-04-24T17:37:22.023Z,45.50
2018-04-24T17:39:49.573Z,45.00
2018-04-24T17:42:17.147Z,46.00
2018-04-24T17:44:44.657Z,45.40
2018-04-24T17:47:12.186Z,45.60
2018-04-24T17:49:39.844Z,45.60
2018-04-24T17:52:08.923Z,46.10
2018-04-24T17:54:36.441Z,46.10
2018-04-24T17:57:04.072Z,45.30
2018-04-24T17:59:31.534Z,46.30
2018-04-24T18:01:59.835Z,47.40
2018-04-24T18:04:28.385Z,47.10
2018-04-24T18:06:56.225Z,47.10
2018-04-24T18:09:24.101Z,46.50
2018-04-24T18:11:51.878Z,46.60
2018-04-24T18:14:19.574Z,47.60
2018-04-24T18:16:47.221Z,46.40
2018-04-24T18:19:14.906Z,46.90
2018-04-24T18:21:43.249Z,47.70
2018-04-24T18:24:10.803Z,47.70
2018-04-24T18:26:38.337Z,47.90
2018-04-24T18:29:06.637Z,48.70
2018-04-24T18:31:34.943Z,49.30
2018-04-24T18:34:02.514Z,49.30
2018-04-24T18:36:32.171Z,50.20
2018-04-24T18:39:00.516Z,50.80
2018-04-24T18:41:28.093Z,50.80
2018-04-24T18:43:55.728Z,51.00
2018-04-24T18:46:23.279Z,51.40
2018-04-24T18:48:51.567Z,53.30
2018-04-24T18:51:19.111Z,53.30
2018-04-24T18:53:47.453Z,53.60
2018-04-24T18:56:14.973Z,53.50
2018-04-24T18:58:42.485Z,53.80
2018-04-24T19:01:10.046Z,56.40
2018-04-24T19:03:37.651Z,56.60
2018-04-24T19:06:05.107Z,56.00
2018-04-24T19:08:33.448Z,56.90
2018-04-24T19:11:04.854Z,56.80
2018-04-24T19:13:33.144Z,56.70
2018-04-24T19:16:01.818Z,56.40
2018-04-24T19:18:35.179Z,56.30
2018-04-24T19:21:02.729Z,56.50
2018-04-24T19:23:30.240Z,55.80
2018-04-24T19:25:58.556Z,56.00
2018-04-24T19:28:26.163Z,55.90
2018-04-24T19:30:53.669Z,57.50
2018-04-24T19:33:21.966Z,57.80
2018-04-24T19:35:49.505Z,57.80
2018-04-24T19:38:17.793Z,58.00
2018-04-24T19:40:51.908Z,58.20
2018-04-24T19:43:20.189Z,58.90
2018-04-24T19:45:48.460Z,59.80
2018-04-24T19:48:22.508Z,59.80
2018-04-24T19:50:50.030Z,59.80
2018-04-24T19:53:17.631Z,59.80
2018-04-24T19:55:45.185Z,59.90
2018-04-24T19:58:12.749Z,59.20
2018-04-24T20:00:40.288Z,59.90
2018-04-24T20:03:07.826Z,59.70
2018-04-24T20:05:35.329Z,59.60
2018-04-24T20:08:03.604Z,60.30
2018-04-24T20:10:31.928Z,59.80
2018-04-24T20:12:59.427Z,59.80
2018-04-24T20:15:27.710Z,60.90
2018-04-24T20:17:55.237Z,60.90
2018-04-24T20:20:22.794Z,61.40
2018-04-24T20:22:50.313Z,61.00
2018-04-24T20:25:17.849Z,61.80
2018-04-24T20:27:45.362Z,61.10
2018-04-24T20:30:13.636Z,61.30
2018-04-24T20:32:41.925Z,61.80
2018-04-24T20:35:09.474Z,61.90
2018-04-24T20:37:37.755Z,61.30
2018-04-24T20:40:06.085Z,62.30
2018-04-24T20:42:33.601Z,62.20
2018-04-24T20:45:01.972Z,63.10
2018-04-24T20:47:29.542Z,63.00
2018-04-24T20:49:57.814Z,62.30
2018-04-24T20:52:25.427Z,62.40
2018-04-24T20:54:53.166Z,62.50
2018-04-24T20:57:21.468Z,62.20
2018-04-24T20:59:49.643Z,62.10
2018-04-24T21:02:17.172Z,62.90
2018-04-24T21:04:45.473Z,63.60
2018-04-24T21:07:13.764Z,63.20
2018-04-24T21:09:41.348Z,63.00
2018-04-24T21:12:08.911Z,63.20
2018-04-24T21:14:36.429Z,63.50
2018-04-24T21:17:05.478Z,63.30
2018-04-24T21:19:33.095Z,63.40
2018-04-24T21:22:00.576Z,63.50
2018-04-24T21:24:28.872Z,64.60
2018-04-24T21:26:58.149Z,63.90
2018-04-24T21:29:26.434Z,65.10
2018-04-24T21:31:53.961Z,64.20
2018-04-24T21:34:21.486Z,65.90
2018-04-24T21:36:49.012Z,64.80
2018-04-24T21:39:18.056Z,65.20
2018-04-24T21:41:45.627Z,65.20
2018-04-24T21:44:13.157Z,65.10
2018-04-24T21:46:41.466Z,65.70
2018-04-24T21:49:10.857Z,64.90
2018-04-24T21:51:39.132Z,64.80
2018-04-24T21:54:07.432Z,64.50
2018-04-24T21:56:35.075Z,64.40
2018-04-24T21:59:02.583Z,65.40
2018-04-24T22:01:30.142Z,66.90
2018-04-24T22:03:57.706Z,66.50
2018-04-24T22:06:25.349Z,66.80
2018-04-24T22:08:52.926Z,67.30
2018-04-24T22:11:20.433Z,67.30
2018-04-24T22:13:47.944Z,67.50
2018-04-24T22:16:16.228Z,70.00
2018-04-24T22:18:44.505Z,69.60
2018-04-24T22:21:12.831Z,70.50
2018-04-24T22:23:40.353Z,70.30
2018-04-24T22:26:08.626Z,69.50
2018-04-24T22:28:36.908Z,69.60
2018-04-24T22:31:05.210Z,69.60
2018-04-24T22:33:32.722Z,69.50
2018-04-24T22:36:00.241Z,69.30
2018-04-24T22:38:27.805Z,68.90
2018-04-24T22:40:55.344Z,68.20
2018-04-24T22:43:23.637Z,68.70
2018-04-24T22:45:52.039Z,68.60
2018-04-24T22:48:19.580Z,68.60
2018-04-24T22:50:47.849Z,69.50
2018-04-24T22:53:16.168Z,70.30
2018-04-24T22:55:43.693Z,70.20
2018-04-24T22:58:12.097Z,70.50
2018-04-24T23:00:39.663Z,70.00
2018-04-24T23:03:07.329Z,70.30
2018-04-24T23:05:35.801Z,69.90
2018-04-24T23:08:03.338Z,69.90
2018-04-24T23:10:43.521Z,69.70
2018-04-24T23:13:23.605Z,70.80
2018-04-24T23:16:02.841Z,70.80
2018-04-24T23:18:42.165Z,70.90
2018-04-24T23:21:09.188Z,70.50
2018-04-24T23:23:37.461Z,71.20
2018-04-24T23:26:05.773Z,72.10
2018-04-24T23:28:33.293Z,71.90
2018-04-24T23:31:00.813Z,71.90
2018-04-24T23:33:28.356Z,70.90
2018-04-24T23:35:55.874Z,71.70
2018-04-24T23:38:23.392Z,72.00
2018-04-24T23:40:50.929Z,72.80
2018-04-24T23:43:19.221Z,73.00
2018-04-24T23:45:47.507Z,72.80
2018-04-24T23:48:15.817Z,72.30
2018-04-24T23:50:43.325Z,72.40
2018-04-24T23:53:10.842Z,72.20
2018-04-24T23:55:38.391Z,72.70
2018-04-24T23:58:05.914Z,72.60
